createdAt,value
2017-12-08T00:00:13.834Z,0.00
2017-12-08T00:00:48.928Z,0.00
2017-12-08T00:01:24.038Z,0.00
2017-12-08T00:01:59.625Z,0.00
2017-12-08T00:02:34.844Z,0.00
2017-12-08T00:03:10.132Z,0.00
2017-12-08T00:03:45.552Z,0.00
2017-12-08T00:04:20.967Z,0.00
2017-12-08T00:04:56.398Z,0.00
2017-12-08T00:05:31.683Z,0.00
2017-12-08T00:06:07.196Z,0.00
2017-12-08T00:06:42.582Z,0.00
2017-12-08T00:07:17.894Z,0.00
2017-12-08T00:07:53.408Z,0.00
2017-12-08T00:08:28.819Z,0.00
2017-12-08T00:09:04.312Z,0.00
2017-12-08T00:09:39.858Z,0.00
2017-12-08T00:10:15.747Z,0.00
2017-12-08T00:10:51.256Z,0.00
2017-12-08T00:11:26.536Z,0.00
2017-12-08T00:12:01.655Z,0.00
2017-12-08T00:12:36.952Z,0.00
2017-12-08T00:13:12.379Z,0.00
2017-12-08T00:13:47.751Z,0.00
2017-12-08T00:14:22.966Z,0.00
2017-12-08T00:14:58.482Z,0.00
2017-12-08T00:15:34.199Z,0.00
2017-12-08T00:16:09.796Z,0.00
2017-12-08T00:16:45.127Z,0.00
2017-12-08T00:17:20.514Z,0.00
2017-12-08T00:17:55.823Z,0.00
2017-12-08T00:18:31.302Z,0.00
2017-12-08T00:19:06.937Z,0.00
2017-12-08T00:19:42.217Z,0.00
2017-12-08T00:20:17.767Z,0.00
2017-12-08T00:20:53.155Z,0.00
2017-12-08T00:21:28.482Z,0.00
2017-12-08T00:22:03.766Z,0.00
2017-12-08T00:22:39.185Z,0.00
2017-12-08T00:23:14.463Z,0.00
2017-12-08T00:23:49.679Z,0.00
2017-12-08T00:24:25.067Z,0.00
2017-12-08T00:25:00.386Z,0.00
2017-12-08T00:25:36.010Z,0.00
2017-12-08T00:26:11.439Z,0.00
2017-12-08T00:26:46.623Z,0.00
2017-12-08T00:27:22.234Z,0.00
2017-12-08T00:27:57.323Z,0.00
2017-12-08T00:28:32.650Z,0.00
2017-12-08T00:29:07.831Z,0.00
2017-12-08T00:29:43.168Z,0.00
2017-12-08T00:30:18.446Z,0.00
2017-12-08T00:30:53.591Z,0.00
2017-12-08T00:31:29.110Z,0.00
2017-12-08T00:32:04.526Z,0.00
2017-12-08T00:32:39.620Z,0.00
2017-12-08T00:33:15.530Z,0.00
2017-12-08T00:33:50.817Z,0.00
2017-12-08T00:34:28.039Z,0.00
2017-12-08T00:35:03.532Z,0.00
2017-12-08T00:35:38.849Z,0.00
2017-12-08T00:36:14.079Z,0.00
2017-12-08T00:36:49.399Z,0.00
2017-12-08T00:37:24.780Z,0.00
2017-12-08T00:38:00.299Z,0.00
2017-12-08T00:38:35.585Z,0.00
2017-12-08T00:39:10.910Z,0.00
2017-12-08T00:39:46.299Z,0.00
2017-12-08T00:40:21.608Z,0.00
2017-12-08T00:40:56.895Z,0.00
2017-12-08T00:41:32.347Z,0.00
2017-12-08T00:42:07.736Z,0.00
2017-12-08T00:42:43.447Z,0.00
2017-12-08T00:43:19.232Z,0.00
2017-12-08T00:43:54.558Z,0.00
2017-12-08T00:44:29.743Z,0.00
2017-12-08T00:45:05.161Z,0.00
2017-12-08T00:45:41.259Z,0.00
2017-12-08T00:46:17.082Z,0.00
2017-12-08T00:46:52.197Z,0.00
2017-12-08T00:47:27.416Z,0.00
2017-12-08T00:48:02.602Z,0.00
2017-12-08T00:48:38.017Z,0.00
2017-12-08T00:49:13.412Z,0.00
2017-12-08T00:49:48.631Z,0.00
2017-12-08T00:50:23.823Z,0.00
2017-12-08T00:50:59.549Z,0.00
2017-12-08T00:51:34.961Z,0.00
2017-12-08T00:52:10.309Z,0.00
2017-12-08T00:52:45.700Z,0.00
2017-12-08T00:53:21.221Z,0.00
2017-12-08T00:53:56.507Z,0.00
2017-12-08T00:54:32.029Z,0.00
2017-12-08T00:55:07.327Z,0.00
2017-12-08T00:55:42.742Z,0.00
2017-12-08T00:56:18.143Z,0.00
2017-12-08T00:56:53.354Z,0.00
2017-12-08T00:57:28.578Z,0.00
2017-12-08T00:58:04.089Z,0.00
2017-12-08T00:58:39.677Z,0.00
2017-12-08T00:59:15.093Z,0.00
2017-12-08T00:59:50.274Z,0.00
2017-12-08T01:00:25.908Z,0.00
2017-12-08T01:01:01.187Z,0.00
2017-12-08T01:01:36.611Z,0.00
2017-12-08T01:02:12.085Z,0.00
2017-12-08T01:02:47.340Z,0.00
2017-12-08T01:03:22.625Z,0.00
2017-12-08T01:03:57.752Z,0.00
2017-12-08T01:04:33.045Z,0.00
2017-12-08T01:05:08.557Z,0.00
2017-12-08T01:05:44.060Z,0.00
2017-12-08T01:06:19.461Z,0.00
2017-12-08T01:06:54.741Z,0.00
2017-12-08T01:07:30.355Z,0.00
2017-12-08T01:08:05.874Z,0.00
2017-12-08T01:08:41.482Z,0.00
2017-12-08T01:09:16.664Z,0.00
2017-12-08T01:09:52.376Z,0.00
2017-12-08T01:10:27.760Z,0.00
2017-12-08T01:11:03.176Z,0.00
2017-12-08T01:11:38.458Z,0.00
2017-12-08T01:12:13.881Z,0.00
2017-12-08T01:12:49.161Z,0.00
2017-12-08T01:13:26.931Z,0.00
2017-12-08T01:14:02.322Z,0.00
2017-12-08T01:14:37.543Z,0.00
2017-12-08T01:15:12.828Z,0.00
2017-12-08T01:15:48.135Z,0.00
2017-12-08T01:16:23.522Z,0.00
2017-12-08T01:16:58.734Z,0.00
2017-12-08T01:17:34.010Z,0.00
2017-12-08T01:18:09.329Z,0.00
2017-12-08T01:18:44.738Z,0.00
2017-12-08T01:19:19.853Z,0.00
2017-12-08T01:19:55.131Z,0.00
2017-12-08T01:20:30.741Z,0.00
2017-12-08T01:21:06.223Z,0.00
2017-12-08T01:21:44.134Z,0.00
2017-12-08T01:22:19.412Z,0.00
2017-12-08T01:22:55.621Z,0.00
2017-12-08T01:23:30.907Z,0.00
2017-12-08T01:24:06.345Z,0.00
2017-12-08T01:24:41.922Z,0.00
2017-12-08T01:25:17.148Z,0.00
2017-12-08T01:25:52.524Z,0.00
2017-12-08T01:26:28.437Z,0.00
2017-12-08T01:27:03.620Z,0.00
2017-12-08T01:27:39.035Z,0.00
2017-12-08T01:28:14.310Z,0.00
2017-12-08T01:28:49.527Z,0.00
2017-12-08T01:29:25.147Z,0.00
2017-12-08T01:30:00.446Z,0.00
2017-12-08T01:30:35.533Z,0.00
2017-12-08T01:31:10.845Z,0.00
2017-12-08T01:31:46.525Z,0.00
2017-12-08T01:32:22.039Z,0.00
2017-12-08T01:32:57.444Z,0.00
2017-12-08T01:33:32.847Z,0.00
2017-12-08T01:34:08.036Z,0.00
2017-12-08T01:34:43.688Z,0.00
2017-12-08T01:35:18.969Z,0.00
2017-12-08T01:35:54.077Z,0.00
2017-12-08T01:36:29.354Z,0.00
2017-12-08T01:37:04.968Z,0.00
2017-12-08T01:37:41.761Z,0.00
2017-12-08T01:38:17.166Z,0.00
2017-12-08T01:38:52.850Z,0.00
2017-12-08T01:39:28.160Z,0.00
2017-12-08T01:40:03.569Z,0.00
2017-12-08T01:40:38.871Z,0.00
2017-12-08T01:41:14.058Z,0.00
2017-12-08T01:41:49.571Z,0.00
2017-12-08T01:42:25.851Z,0.00
2017-12-08T01:43:01.272Z,0.00
2017-12-08T01:43:36.853Z,0.00
2017-12-08T01:44:12.368Z,0.00
2017-12-08T01:44:47.948Z,0.00
2017-12-08T01:45:23.289Z,0.00
2017-12-08T01:45:58.574Z,0.00
2017-12-08T01:46:33.782Z,0.00
2017-12-08T01:47:09.763Z,0.00
2017-12-08T01:47:45.172Z,0.00
2017-12-08T01:48:20.462Z,0.00
2017-12-08T01:48:55.772Z,0.00
2017-12-08T01:49:31.151Z,0.00
2017-12-08T01:50:06.361Z,0.00
2017-12-08T01:50:42.472Z,0.00
2017-12-08T01:51:17.880Z,0.00
2017-12-08T01:51:53.163Z,0.00
2017-12-08T01:52:28.671Z,0.00
2017-12-08T01:53:03.946Z,0.00
2017-12-08T01:53:41.258Z,0.00
2017-12-08T01:54:16.638Z,0.00
2017-12-08T01:54:51.850Z,0.00
2017-12-08T01:55:27.241Z,0.00
2017-12-08T01:56:02.587Z,0.00
2017-12-08T01:56:37.875Z,0.00
2017-12-08T01:57:13.086Z,0.00
2017-12-08T01:57:51.880Z,0.00
2017-12-08T01:58:27.195Z,0.00
2017-12-08T01:59:02.375Z,0.00
2017-12-08T01:59:37.485Z,0.00
2017-12-08T02:00:12.667Z,0.00
2017-12-08T02:00:48.085Z,0.00
2017-12-08T02:01:23.492Z,0.00
2017-12-08T02:01:58.705Z,0.00
2017-12-08T02:02:35.014Z,0.00
2017-12-08T02:03:10.536Z,0.00
2017-12-08T02:03:47.908Z,0.00
2017-12-08T02:04:23.514Z,0.00
2017-12-08T02:04:59.496Z,0.00
2017-12-08T02:05:34.993Z,0.00
2017-12-08T02:06:10.371Z,0.00
2017-12-08T02:06:45.813Z,0.00
2017-12-08T02:07:22.684Z,0.00
2017-12-08T02:07:59.292Z,0.00
2017-12-08T02:08:34.585Z,0.00
2017-12-08T02:09:09.795Z,0.00
2017-12-08T02:09:45.079Z,0.00
2017-12-08T02:10:20.680Z,0.00
2017-12-08T02:10:55.959Z,0.00
2017-12-08T02:11:31.360Z,0.00
2017-12-08T02:12:06.862Z,0.00
2017-12-08T02:12:42.264Z,0.00
2017-12-08T02:13:17.444Z,0.00
2017-12-08T02:13:52.847Z,0.00
2017-12-08T02:14:28.427Z,0.00
2017-12-08T02:15:03.625Z,0.00
2017-12-08T02:15:39.100Z,0.00
2017-12-08T02:16:14.408Z,0.00
2017-12-08T02:16:49.483Z,0.00
2017-12-08T02:17:24.822Z,0.00
2017-12-08T02:18:00.299Z,0.00
2017-12-08T02:18:35.607Z,0.00
2017-12-08T02:19:10.783Z,0.00
2017-12-08T02:19:45.983Z,0.00
2017-12-08T02:20:21.175Z,0.00
2017-12-08T02:20:56.584Z,0.00
2017-12-08T02:21:32.059Z,0.00
2017-12-08T02:22:07.566Z,0.00
2017-12-08T02:22:42.776Z,0.00
2017-12-08T02:23:18.082Z,0.00
2017-12-08T02:23:53.462Z,0.00
2017-12-08T02:24:28.676Z,0.00
2017-12-08T02:25:03.848Z,0.00
2017-12-08T02:25:39.352Z,0.00
2017-12-08T02:26:14.634Z,0.00
2017-12-08T02:26:50.037Z,0.00
2017-12-08T02:27:25.022Z,0.00
2017-12-08T02:28:00.557Z,0.00
2017-12-08T02:28:35.945Z,0.00
2017-12-08T02:29:11.346Z,0.00
2017-12-08T02:29:46.530Z,0.00
2017-12-08T02:30:22.038Z,0.00
2017-12-08T02:30:57.117Z,0.00
2017-12-08T02:31:32.526Z,0.00
2017-12-08T02:32:07.604Z,0.00
2017-12-08T02:32:45.913Z,0.00
2017-12-08T02:33:21.527Z,0.00
2017-12-08T02:33:56.829Z,0.00
2017-12-08T02:34:32.106Z,0.00
2017-12-08T02:35:07.510Z,0.00
2017-12-08T02:35:42.704Z,0.00
2017-12-08T02:36:17.906Z,0.00
2017-12-08T02:36:53.288Z,0.00
2017-12-08T02:37:28.588Z,0.00
2017-12-08T02:38:03.973Z,0.00
2017-12-08T02:38:39.302Z,0.00
2017-12-08T02:39:14.682Z,0.00
2017-12-08T02:39:50.085Z,0.00
2017-12-08T02:40:25.360Z,0.00
2017-12-08T02:41:00.864Z,0.00
2017-12-08T02:41:36.240Z,0.00
2017-12-08T02:42:11.548Z,0.00
2017-12-08T02:42:50.932Z,0.00
2017-12-08T02:43:26.534Z,0.00
2017-12-08T02:44:01.735Z,0.00
2017-12-08T02:44:37.241Z,0.00
2017-12-08T02:45:12.949Z,0.00
2017-12-08T02:45:48.347Z,0.00
2017-12-08T02:46:24.531Z,0.00
2017-12-08T02:47:00.033Z,0.00
2017-12-08T02:47:35.505Z,0.00
2017-12-08T02:48:10.913Z,0.00
2017-12-08T02:48:46.185Z,0.00
2017-12-08T02:49:22.029Z,0.00
2017-12-08T02:49:57.113Z,0.00
2017-12-08T02:50:32.721Z,0.00
2017-12-08T02:51:08.194Z,0.00
2017-12-08T02:51:44.002Z,0.00
2017-12-08T02:52:19.383Z,0.00
2017-12-08T02:52:54.989Z,0.00
2017-12-08T02:53:30.477Z,0.00
2017-12-08T02:54:06.289Z,0.00
2017-12-08T02:54:41.717Z,0.00
2017-12-08T02:55:16.924Z,0.00
2017-12-08T02:55:52.810Z,0.00
2017-12-08T02:56:28.119Z,0.00
2017-12-08T02:57:03.508Z,0.00
2017-12-08T02:57:38.820Z,0.00
2017-12-08T02:58:14.119Z,0.00
2017-12-08T02:58:49.530Z,0.00
2017-12-08T02:59:24.620Z,0.00
2017-12-08T03:00:00.356Z,0.00
2017-12-08T03:00:35.658Z,0.00
2017-12-08T03:01:11.064Z,0.00
2017-12-08T03:01:46.442Z,0.00
2017-12-08T03:02:21.650Z,0.00
2017-12-08T03:02:56.830Z,0.00
2017-12-08T03:03:32.133Z,0.00
2017-12-08T03:04:07.520Z,0.00
2017-12-08T03:04:43.035Z,0.00
2017-12-08T03:05:18.344Z,0.00
2017-12-08T03:05:53.363Z,0.00
2017-12-08T03:06:28.765Z,0.00
2017-12-08T03:07:04.158Z,0.00
2017-12-08T03:07:42.534Z,0.00
2017-12-08T03:08:22.728Z,0.00
2017-12-08T03:08:58.010Z,0.00
2017-12-08T03:09:33.222Z,0.00
2017-12-08T03:10:08.806Z,0.00
2017-12-08T03:10:46.043Z,0.00
2017-12-08T03:11:22.837Z,0.00
2017-12-08T03:11:58.247Z,0.00
2017-12-08T03:12:33.537Z,0.00
2017-12-08T03:13:10.861Z,0.00
2017-12-08T03:13:46.519Z,0.00
2017-12-08T03:14:23.632Z,0.00
2017-12-08T03:14:58.915Z,0.00
2017-12-08T03:15:34.221Z,0.00
2017-12-08T03:16:09.733Z,0.00
2017-12-08T03:16:45.037Z,0.00
2017-12-08T03:17:20.219Z,0.00
2017-12-08T03:17:55.326Z,0.00
2017-12-08T03:18:30.506Z,0.00
2017-12-08T03:19:06.017Z,0.00
2017-12-08T03:19:42.903Z,0.00
2017-12-08T03:20:18.676Z,0.00
2017-12-08T03:20:53.967Z,0.00
2017-12-08T03:21:29.224Z,0.00
2017-12-08T03:22:04.718Z,0.00
2017-12-08T03:22:40.032Z,0.00
2017-12-08T03:23:15.320Z,0.00
2017-12-08T03:23:50.831Z,0.00
2017-12-08T03:24:26.211Z,0.00
2017-12-08T03:25:01.625Z,0.00
2017-12-08T03:25:36.907Z,0.00
2017-12-08T03:26:12.516Z,0.00
2017-12-08T03:26:47.840Z,0.00
2017-12-08T03:27:23.459Z,0.00
2017-12-08T03:27:58.747Z,0.00
2017-12-08T03:28:33.859Z,0.00
2017-12-08T03:29:09.143Z,0.00
2017-12-08T03:29:45.037Z,0.00
2017-12-08T03:30:20.656Z,0.00
2017-12-08T03:30:55.881Z,0.00
2017-12-08T03:31:31.265Z,0.00
2017-12-08T03:32:06.911Z,0.00
2017-12-08T03:32:42.093Z,0.00
2017-12-08T03:33:17.505Z,0.00
2017-12-08T03:33:52.783Z,0.00
2017-12-08T03:34:27.999Z,0.00
2017-12-08T03:35:03.594Z,0.00
2017-12-08T03:35:39.009Z,0.00
2017-12-08T03:36:14.291Z,0.00
2017-12-08T03:36:49.718Z,0.00
2017-12-08T03:37:25.036Z,0.00
2017-12-08T03:38:00.247Z,0.00
2017-12-08T03:38:35.833Z,0.00
2017-12-08T03:39:11.245Z,0.00
2017-12-08T03:39:46.428Z,0.00
2017-12-08T03:40:21.540Z,0.00
2017-12-08T03:40:56.624Z,0.00
2017-12-08T03:41:31.844Z,0.00
2017-12-08T03:42:07.321Z,0.00
2017-12-08T03:42:42.566Z,0.00
2017-12-08T03:43:17.650Z,0.00
2017-12-08T03:43:52.856Z,0.00
2017-12-08T03:44:28.043Z,0.00
2017-12-08T03:45:04.356Z,0.00
2017-12-08T03:45:39.642Z,0.00
2017-12-08T03:46:14.850Z,0.00
2017-12-08T03:46:50.132Z,0.00
2017-12-08T03:47:25.345Z,0.00
2017-12-08T03:48:00.751Z,0.00
2017-12-08T03:48:35.978Z,0.00
2017-12-08T03:49:11.556Z,0.00
2017-12-08T03:49:46.767Z,0.00
2017-12-08T03:50:22.455Z,0.00
2017-12-08T03:50:57.969Z,0.00
2017-12-08T03:51:33.160Z,0.00
2017-12-08T03:52:08.369Z,0.00
2017-12-08T03:52:43.558Z,0.00
2017-12-08T03:53:19.196Z,0.00
2017-12-08T03:53:54.379Z,0.00
2017-12-08T03:54:29.888Z,0.00
2017-12-08T03:55:05.273Z,0.00
2017-12-08T03:55:40.592Z,0.00
2017-12-08T03:56:15.675Z,0.00
2017-12-08T03:56:51.085Z,0.00
2017-12-08T03:57:26.368Z,0.00
2017-12-08T03:58:01.579Z,0.00
2017-12-08T03:58:37.090Z,0.00
2017-12-08T03:59:12.412Z,0.00
2017-12-08T03:59:47.702Z,0.00
2017-12-08T04:00:23.114Z,0.00
2017-12-08T04:00:58.397Z,0.00
2017-12-08T04:01:33.619Z,0.00
2017-12-08T04:02:08.791Z,0.00
2017-12-08T04:02:44.102Z,0.00
2017-12-08T04:03:19.484Z,0.00
2017-12-08T04:03:54.830Z,0.00
2017-12-08T04:04:30.112Z,0.00
2017-12-08T04:05:05.535Z,0.00
2017-12-08T04:05:41.333Z,0.00
2017-12-08T04:06:16.862Z,0.00
2017-12-08T04:06:51.965Z,0.00
2017-12-08T04:07:27.293Z,0.00
2017-12-08T04:08:02.787Z,0.00
2017-12-08T04:08:38.209Z,0.00
2017-12-08T04:09:13.641Z,0.00
2017-12-08T04:09:48.660Z,0.00
2017-12-08T04:10:23.852Z,0.00
2017-12-08T04:10:59.183Z,0.00
2017-12-08T04:11:34.569Z,0.00
2017-12-08T04:12:09.790Z,0.00
2017-12-08T04:12:44.984Z,0.00
2017-12-08T04:13:20.314Z,0.00
2017-12-08T04:13:55.807Z,0.00
2017-12-08T04:14:31.479Z,0.00
2017-12-08T04:15:06.780Z,0.00
2017-12-08T04:15:42.293Z,0.00
2017-12-08T04:16:17.893Z,0.00
2017-12-08T04:16:53.303Z,0.00
2017-12-08T04:17:28.711Z,0.00
2017-12-08T04:18:03.832Z,0.00
2017-12-08T04:18:39.128Z,0.00
2017-12-08T04:19:14.359Z,0.00
2017-12-08T04:19:50.086Z,0.00
2017-12-08T04:20:25.417Z,0.00
2017-12-08T04:21:00.715Z,0.00
2017-12-08T04:21:36.738Z,0.00
2017-12-08T04:22:12.053Z,0.00
2017-12-08T04:22:47.284Z,0.00
2017-12-08T04:23:22.685Z,0.00
2017-12-08T04:23:58.421Z,0.00
2017-12-08T04:24:33.828Z,0.00
2017-12-08T04:25:11.785Z,0.00
2017-12-08T04:25:47.039Z,0.00
2017-12-08T04:26:22.465Z,0.00
2017-12-08T04:26:57.640Z,0.00
2017-12-08T04:27:36.164Z,0.00
2017-12-08T04:28:11.558Z,0.00
2017-12-08T04:28:47.105Z,0.00
2017-12-08T04:29:22.603Z,0.00
2017-12-08T04:29:58.032Z,0.00
2017-12-08T04:30:33.533Z,0.00
2017-12-08T04:31:08.964Z,0.00
2017-12-08T04:31:44.455Z,0.00
2017-12-08T04:32:19.872Z,0.00
2017-12-08T04:32:55.268Z,0.00
2017-12-08T04:33:30.682Z,0.00
2017-12-08T04:34:06.063Z,0.00
2017-12-08T04:34:41.297Z,0.00
2017-12-08T04:35:16.500Z,0.00
2017-12-08T04:35:51.840Z,0.00
2017-12-08T04:36:27.326Z,0.00
2017-12-08T04:37:02.731Z,0.00
2017-12-08T04:37:38.142Z,0.00
2017-12-08T04:38:13.658Z,0.00
2017-12-08T04:38:48.961Z,0.00
2017-12-08T04:39:24.171Z,0.00
2017-12-08T04:39:59.462Z,0.00
2017-12-08T04:40:35.171Z,0.00
2017-12-08T04:41:10.598Z,0.00
2017-12-08T04:41:45.802Z,0.00
2017-12-08T04:42:21.516Z,0.00
2017-12-08T04:42:56.922Z,0.00
2017-12-08T04:43:32.098Z,0.00
2017-12-08T04:44:07.304Z,0.00
2017-12-08T04:44:42.603Z,0.00
2017-12-08T04:45:17.809Z,0.00
2017-12-08T04:45:55.486Z,0.00
2017-12-08T04:46:30.938Z,0.00
2017-12-08T04:47:06.120Z,0.00
2017-12-08T04:47:41.628Z,0.00
2017-12-08T04:48:16.634Z,0.00
2017-12-08T04:48:51.873Z,0.00
2017-12-08T04:49:27.069Z,0.00
2017-12-08T04:50:02.693Z,0.00
2017-12-08T04:50:38.385Z,0.00
2017-12-08T04:51:13.394Z,0.00
2017-12-08T04:51:48.804Z,0.00
2017-12-08T04:52:24.625Z,0.00
2017-12-08T04:52:59.707Z,0.00
2017-12-08T04:53:35.249Z,0.00
2017-12-08T04:54:10.568Z,0.00
2017-12-08T04:54:45.950Z,0.00
2017-12-08T04:55:21.541Z,0.00
2017-12-08T04:55:56.966Z,0.00
2017-12-08T04:56:32.258Z,0.00
2017-12-08T04:57:07.504Z,0.00
2017-12-08T04:57:42.709Z,0.00
2017-12-08T04:58:17.939Z,0.00
2017-12-08T04:58:53.237Z,0.00
2017-12-08T04:59:28.566Z,0.00
2017-12-08T05:00:03.763Z,0.00
2017-12-08T05:00:39.184Z,0.00
2017-12-08T05:01:14.568Z,0.00
2017-12-08T05:01:49.813Z,0.00
2017-12-08T05:02:25.428Z,0.00
2017-12-08T05:03:00.849Z,0.00
2017-12-08T05:03:36.433Z,0.00
2017-12-08T05:04:11.638Z,0.00
2017-12-08T05:04:47.020Z,0.00
2017-12-08T05:05:22.534Z,0.00
2017-12-08T05:05:57.759Z,0.00
2017-12-08T05:06:33.427Z,0.00
2017-12-08T05:07:09.115Z,0.00
2017-12-08T05:07:44.466Z,0.00
2017-12-08T05:10:21.180Z,0.00
2017-12-08T05:10:56.764Z,0.00
2017-12-08T05:11:32.319Z,0.00
2017-12-08T05:12:07.705Z,0.00
2017-12-08T05:12:43.065Z,0.00
2017-12-08T05:13:18.376Z,0.00
2017-12-08T05:13:53.630Z,0.00
2017-12-08T05:14:28.913Z,0.00
2017-12-08T05:15:04.272Z,0.00
2017-12-08T05:15:39.662Z,0.00
2017-12-08T05:16:14.817Z,0.00
2017-12-08T05:16:50.005Z,0.00
2017-12-08T05:17:25.468Z,0.00
2017-12-08T05:18:00.662Z,0.00
2017-12-08T05:18:36.167Z,0.00
2017-12-08T05:19:11.355Z,0.00
2017-12-08T05:19:46.614Z,0.00
2017-12-08T05:20:21.795Z,0.00
2017-12-08T05:20:57.349Z,0.00
2017-12-08T05:21:32.734Z,0.00
2017-12-08T05:22:08.094Z,0.00
2017-12-08T05:22:43.983Z,0.00
2017-12-08T05:23:19.336Z,0.00
2017-12-08T05:23:54.549Z,0.00
2017-12-08T05:24:29.614Z,0.00
2017-12-08T05:25:05.212Z,0.00
2017-12-08T05:25:40.579Z,0.00
2017-12-08T05:26:15.874Z,0.00
2017-12-08T05:26:51.246Z,0.00
2017-12-08T05:27:26.436Z,0.00
2017-12-08T05:28:01.703Z,0.00
2017-12-08T05:28:37.092Z,0.00
2017-12-08T05:29:12.684Z,0.00
2017-12-08T05:29:47.982Z,0.00
2017-12-08T05:30:23.253Z,0.00
2017-12-08T05:30:58.651Z,0.00
2017-12-08T05:31:33.811Z,0.00
2017-12-08T05:32:09.103Z,0.00
2017-12-08T05:32:44.669Z,0.00
2017-12-08T05:33:19.861Z,0.00
2017-12-08T05:33:54.826Z,0.00
2017-12-08T05:34:30.248Z,0.00
2017-12-08T05:35:05.531Z,0.00
2017-12-08T05:35:40.925Z,8.00
2017-12-08T05:36:16.192Z,8.00
2017-12-08T05:36:51.585Z,8.00
2017-12-08T05:37:26.748Z,8.00
2017-12-08T05:38:01.945Z,8.00
2017-12-08T05:38:37.119Z,12.00
2017-12-08T05:39:12.214Z,0.00
2017-12-08T05:39:47.606Z,0.00
2017-12-08T05:40:23.003Z,0.00
2017-12-08T05:40:58.379Z,0.00
2017-12-08T05:41:34.103Z,0.00
2017-12-08T05:42:09.477Z,0.00
2017-12-08T05:42:45.275Z,0.00
2017-12-08T05:43:20.365Z,0.00
2017-12-08T05:43:55.670Z,0.00
2017-12-08T05:44:31.153Z,0.00
2017-12-08T05:45:06.377Z,0.00
2017-12-08T05:45:41.637Z,0.00
2017-12-08T05:46:17.040Z,0.00
2017-12-08T05:46:52.528Z,0.00
2017-12-08T05:47:27.941Z,0.00
2017-12-08T05:48:03.313Z,0.00
2017-12-08T05:48:38.922Z,0.00
2017-12-08T05:49:14.305Z,0.00
2017-12-08T05:49:49.421Z,0.00
2017-12-08T05:50:24.615Z,0.00
2017-12-08T05:50:59.937Z,0.00
2017-12-08T05:51:35.423Z,0.00
2017-12-08T05:52:10.823Z,0.00
2017-12-08T05:52:46.202Z,0.00
2017-12-08T05:53:21.817Z,0.00
2017-12-08T05:53:56.995Z,0.00
2017-12-08T05:54:32.393Z,0.00
2017-12-08T05:55:07.982Z,0.00
2017-12-08T05:55:42.917Z,0.00
2017-12-08T05:56:18.178Z,0.00
2017-12-08T05:56:53.494Z,0.00
2017-12-08T05:57:28.785Z,0.00
2017-12-08T05:58:04.183Z,0.00
2017-12-08T05:58:39.562Z,0.00
2017-12-08T05:59:14.860Z,0.00
2017-12-08T05:59:50.135Z,0.00
2017-12-08T06:00:25.442Z,0.00
2017-12-08T06:01:00.934Z,0.00
2017-12-08T06:01:35.937Z,0.00
2017-12-08T06:02:12.048Z,0.00
2017-12-08T06:02:47.457Z,0.00
2017-12-08T06:03:23.026Z,0.00
2017-12-08T06:03:58.432Z,0.00
2017-12-08T06:04:33.812Z,0.00
2017-12-08T06:05:09.007Z,0.00
2017-12-08T06:05:44.366Z,0.00
2017-12-08T06:06:19.696Z,0.00
2017-12-08T06:06:55.963Z,0.00
2017-12-08T06:07:31.162Z,0.00
2017-12-08T06:08:06.530Z,0.00
2017-12-08T06:08:41.816Z,0.00
2017-12-08T06:09:17.097Z,0.00
2017-12-08T06:09:52.805Z,0.00
2017-12-08T06:10:28.273Z,0.00
2017-12-08T06:11:03.772Z,0.00
2017-12-08T06:11:38.981Z,0.00
2017-12-08T06:12:14.278Z,0.00
2017-12-08T06:12:49.645Z,0.00
2017-12-08T06:13:24.640Z,0.00
2017-12-08T06:13:59.800Z,0.00
2017-12-08T06:14:34.995Z,0.00
2017-12-08T06:15:10.266Z,0.00
2017-12-08T06:15:45.555Z,0.00
2017-12-08T06:16:21.035Z,0.00
2017-12-08T06:16:56.356Z,0.00
2017-12-08T06:17:31.618Z,0.00
2017-12-08T06:18:07.224Z,0.00
2017-12-08T06:18:42.597Z,0.00
2017-12-08T06:19:17.797Z,0.00
2017-12-08T06:19:53.179Z,0.00
2017-12-08T06:20:28.288Z,0.00
2017-12-08T06:21:03.657Z,0.00
2017-12-08T06:21:39.179Z,0.00
2017-12-08T06:22:14.674Z,0.00
2017-12-08T06:22:50.270Z,0.00
2017-12-08T06:23:25.548Z,0.00
2017-12-08T06:24:01.037Z,0.00
2017-12-08T06:24:36.204Z,0.00
2017-12-08T06:25:11.307Z,0.00
2017-12-08T06:25:47.179Z,0.00
2017-12-08T06:26:22.370Z,0.00
2017-12-08T06:26:57.733Z,0.00
2017-12-08T06:27:34.974Z,0.00
2017-12-08T06:28:10.624Z,0.00
2017-12-08T06:28:45.732Z,0.00
2017-12-08T06:29:20.906Z,0.00
2017-12-08T06:29:56.306Z,0.00
2017-12-08T06:30:31.477Z,0.00
2017-12-08T06:31:06.775Z,0.00
2017-12-08T06:31:42.057Z,0.00
2017-12-08T06:32:17.476Z,0.00
2017-12-08T06:32:52.880Z,0.00
2017-12-08T06:33:28.537Z,0.00
2017-12-08T06:34:03.924Z,0.00
2017-12-08T06:34:39.442Z,0.00
2017-12-08T06:35:14.730Z,0.00
2017-12-08T06:35:50.045Z,0.00
2017-12-08T06:36:25.422Z,0.00
2017-12-08T06:37:00.820Z,0.00
2017-12-08T06:37:36.090Z,0.00
2017-12-08T06:38:11.522Z,4.00
2017-12-08T06:38:46.823Z,4.00
2017-12-08T06:39:22.633Z,4.00
2017-12-08T06:39:57.905Z,4.00
2017-12-08T06:40:33.119Z,4.00
2017-12-08T06:41:08.408Z,4.00
2017-12-08T06:41:43.902Z,4.00
2017-12-08T06:42:19.083Z,4.00
2017-12-08T06:42:54.298Z,4.00
2017-12-08T06:43:29.604Z,0.00
2017-12-08T06:44:04.999Z,0.00
2017-12-08T06:44:40.166Z,0.00
2017-12-08T06:45:15.368Z,0.00
2017-12-08T06:45:50.347Z,0.00
2017-12-08T06:46:25.680Z,0.00
2017-12-08T06:47:00.941Z,0.00
2017-12-08T06:47:36.354Z,0.00
2017-12-08T06:48:11.727Z,4.00
2017-12-08T06:48:47.006Z,4.00
2017-12-08T06:49:22.232Z,4.00
2017-12-08T06:49:57.520Z,4.00
2017-12-08T06:50:32.685Z,4.00
2017-12-08T06:51:09.790Z,0.00
2017-12-08T06:51:44.951Z,12.00
2017-12-08T06:52:20.656Z,16.00
2017-12-08T06:52:56.012Z,4.00
2017-12-08T06:53:31.317Z,4.00
2017-12-08T06:54:06.517Z,4.00
2017-12-08T06:54:41.716Z,8.00
2017-12-08T06:55:16.584Z,4.00
2017-12-08T06:55:51.979Z,8.00
2017-12-08T06:56:27.347Z,4.00
2017-12-08T06:57:02.641Z,8.00
2017-12-08T06:57:37.817Z,8.00
2017-12-08T06:58:13.113Z,8.00
2017-12-08T06:58:48.484Z,12.00
2017-12-08T06:59:23.794Z,12.00
2017-12-08T06:59:59.058Z,16.00
2017-12-08T07:00:34.264Z,16.00
2017-12-08T07:01:09.736Z,16.00
2017-12-08T07:01:45.039Z,16.00
2017-12-08T07:02:20.510Z,20.00
2017-12-08T07:02:55.812Z,20.00
2017-12-08T07:03:31.182Z,24.00
2017-12-08T07:04:06.678Z,24.00
2017-12-08T07:04:42.076Z,28.00
2017-12-08T07:05:17.269Z,28.00
2017-12-08T07:05:52.455Z,32.00
2017-12-08T07:06:27.873Z,32.00
2017-12-08T07:07:03.152Z,40.00
2017-12-08T07:07:38.336Z,40.00
2017-12-08T07:08:13.606Z,44.00
2017-12-08T07:08:49.234Z,52.00
2017-12-08T07:09:24.705Z,52.00
2017-12-08T07:10:00.134Z,56.00
2017-12-08T07:10:35.603Z,60.00
2017-12-08T07:11:11.097Z,64.00
2017-12-08T07:11:46.465Z,68.00
2017-12-08T07:12:22.048Z,72.00
2017-12-08T07:12:57.222Z,80.00
2017-12-08T07:13:32.618Z,80.00
2017-12-08T07:14:08.089Z,88.00
2017-12-08T07:14:43.778Z,92.00
2017-12-08T07:15:18.963Z,100.00
2017-12-08T07:15:54.352Z,104.00
2017-12-08T07:16:29.340Z,108.00
2017-12-08T07:17:04.641Z,116.00
2017-12-08T07:17:40.204Z,120.00
2017-12-08T07:18:15.604Z,132.00
2017-12-08T07:18:51.168Z,140.00
2017-12-08T07:19:26.466Z,140.00
2017-12-08T07:20:01.836Z,152.00
2017-12-08T07:20:37.468Z,160.00
2017-12-08T07:21:12.928Z,164.00
2017-12-08T07:21:48.419Z,168.00
2017-12-08T07:22:23.782Z,176.00
2017-12-08T07:22:59.524Z,188.00
2017-12-08T07:23:34.637Z,196.00
2017-12-08T07:24:10.124Z,204.00
2017-12-08T07:24:45.490Z,216.00
2017-12-08T07:25:20.982Z,224.00
2017-12-08T07:25:56.417Z,232.00
2017-12-08T07:26:31.809Z,244.00
2017-12-08T07:27:06.977Z,252.00
2017-12-08T07:27:42.074Z,264.00
2017-12-08T07:28:17.349Z,272.00
2017-12-08T07:28:52.635Z,288.00
2017-12-08T07:29:27.901Z,296.00
2017-12-08T07:30:03.127Z,308.00
2017-12-08T07:30:38.792Z,324.00
2017-12-08T07:31:14.219Z,336.00
2017-12-08T07:31:49.179Z,348.00
2017-12-08T07:32:24.468Z,364.00
2017-12-08T07:32:59.733Z,376.00
2017-12-08T07:33:35.023Z,392.00
2017-12-08T07:34:10.190Z,404.00
2017-12-08T07:34:45.481Z,416.00
2017-12-08T07:35:20.851Z,428.00
2017-12-08T07:35:56.468Z,444.00
2017-12-08T07:36:31.846Z,456.00
2017-12-08T07:37:07.243Z,472.00
2017-12-08T07:37:42.311Z,488.00
2017-12-08T07:38:17.700Z,504.00
2017-12-08T07:38:53.264Z,520.00
2017-12-08T07:39:28.564Z,536.00
2017-12-08T07:40:04.030Z,556.00
2017-12-08T07:40:39.418Z,572.00
2017-12-08T07:41:14.691Z,592.00
2017-12-08T07:41:50.308Z,608.00
2017-12-08T07:42:25.669Z,636.00
2017-12-08T07:43:01.067Z,656.00
2017-12-08T07:43:36.429Z,688.00
2017-12-08T07:44:11.921Z,720.00
2017-12-08T07:44:47.180Z,748.00
2017-12-08T07:45:22.481Z,780.00
2017-12-08T07:45:58.550Z,812.00
2017-12-08T07:46:33.847Z,848.00
2017-12-08T07:47:11.449Z,916.00
2017-12-08T07:47:47.042Z,928.00
2017-12-08T07:48:22.211Z,960.00
2017-12-08T07:48:57.607Z,1004.00
2017-12-08T07:49:32.873Z,1052.00
2017-12-08T07:50:08.274Z,1124.00
2017-12-08T07:50:43.536Z,1112.00